Time;durP1;ratioP1;P1;durP2;ratioP2;P2;SDS_P1;SDS_P2;PMS_P1;PMS_P2;Temp;Humidity;BMP_temperature;BMP_pressure;BME280_temperature;BME280_humidity;BME280_pressure;Samples;Min_cycle;Max_cycle;Signal;HPM_P1;HPM_P2
2024/01/06 00:01:39;;;;;;;7.38;1.80;;;8.30;99.90;;;;;;5056653;28;20451;-68
2024/01/06 00:04:04;;;;;;;8.82;1.85;;;8.20;99.90;;;;;;5056337;28;20029;-67
2024/01/06 00:06:30;;;;;;;6.55;1.88;;;8.20;99.90;;;;;;5023322;28;20083;-67
2024/01/06 00:08:56;;;;;;;7.45;2.00;;;8.20;99.90;;;;;;5056205;28;20029;-67
2024/01/06 00:11:23;;;;;;;4.25;1.98;;;8.20;99.90;;;;;;5057044;28;20094;-66
2024/01/06 00:13:48;;;;;;;3.20;1.60;;;8.20;99.90;;;;;;5057099;28;20094;-68
2024/01/06 00:16:18;;;;;;;4.95;1.63;;;8.20;99.90;;;;;;5056889;28;20061;-65
2024/01/06 00:18:44;;;;;;;3.78;1.90;;;8.30;99.90;;;;;;5056956;28;20048;-68
2024/01/06 00:21:09;;;;;;;10.38;2.08;;;8.30;99.90;;;;;;5056214;28;20037;-66
2024/01/06 00:23:35;;;;;;;5.28;2.03;;;8.40;99.90;;;;;;5039596;28;20040;-67
2024/01/06 00:26:02;;;;;;;5.10;2.08;;;8.40;99.90;;;;;;5056660;28;20132;-68
2024/01/06 00:28:28;;;;;;;7.80;2.08;;;8.40;99.90;;;;;;5039663;28;20040;-66
2024/01/06 00:30:53;;;;;;;8.45;2.40;;;8.40;99.90;;;;;;5056638;28;20293;-67
2024/01/06 00:33:20;;;;;;;7.60;2.45;;;8.40;99.90;;;;;;5056619;28;20087;-67
2024/01/06 00:35:46;;;;;;;6.00;2.13;;;8.30;99.90;;;;;;5055984;28;20037;-67
2024/01/06 00:38:11;;;;;;;5.43;2.08;;;8.30;99.90;;;;;;5056658;28;20055;-67
2024/01/06 00:40:38;;;;;;;6.72;2.15;;;8.40;99.90;;;;;;5055941;28;20084;-68
2024/01/06 00:43:04;;;;;;;5.03;2.22;;;8.40;99.90;;;;;;5055922;28;20045;-68
2024/01/06 00:45:30;;;;;;;3.38;2.10;;;8.60;99.90;;;;;;5055750;28;20158;-68
2024/01/06 00:47:56;;;;;;;4.30;2.47;;;8.60;99.90;;;;;;5056570;28;20044;-69
2024/01/06 00:50:23;;;;;;;6.13;2.60;;;8.50;99.90;;;;;;5055918;28;20095;-68
2024/01/06 00:52:52;;;;;;;4.13;2.17;;;8.50;99.90;;;;;;5056562;28;20021;-68
2024/01/06 00:55:21;;;;;;;7.22;3.35;;;8.50;99.90;;;;;;5056625;28;20032;-69
2024/01/06 00:57:47;;;;;;;7.75;3.35;;;8.40;99.90;;;;;;5057243;28;20037;-69
2024/01/06 01:00:13;;;;;;;7.13;3.10;;;8.40;99.90;;;;;;5060491;28;20048;-70
2024/01/06 01:02:39;;;;;;;6.43;2.85;;;8.50;99.90;;;;;;5059802;28;20041;-70
2024/01/06 01:05:07;;;;;;;5.35;2.33;;;8.60;99.90;;;;;;5043048;28;20401;-69
2024/01/06 01:07:33;;;;;;;5.93;2.42;;;8.60;99.90;;;;;;5059904;28;20040;-70
2024/01/06 01:09:59;;;;;;;6.63;2.60;;;8.60;99.90;;;;;;5043009;28;20041;-70
2024/01/06 01:12:25;;;;;;;5.07;2.80;;;8.50;99.90;;;;;;5060338;28;20028;-69
2024/01/06 01:14:51;;;;;;;4.43;2.83;;;8.60;99.90;;;;;;5059527;28;20125;-69
2024/01/06 01:17:17;;;;;;;3.88;3.10;;;8.50;99.90;;;;;;5060238;28;20116;-70
2024/01/06 01:19:44;;;;;;;6.68;4.28;;;8.50;99.90;;;;;;5059489;28;20412;-69
2024/01/06 01:22:09;;;;;;;6.07;4.10;;;8.50;99.90;;;;;;5059383;28;20025;-69
2024/01/06 01:24:35;;;;;;;7.38;4.15;;;8.50;99.90;;;;;;5059300;28;20040;-68
2024/01/06 01:27:01;;;;;;;10.32;5.18;;;8.50;99.90;;;;;;5060098;28;20048;-69
2024/01/06 01:29:27;;;;;;;7.75;5.07;;;8.60;99.90;;;;;;5059205;28;20064;-68
2024/01/06 01:31:53;;;;;;;8.68;5.55;;;8.60;99.90;;;;;;5060236;28;20404;-69
2024/01/06 01:34:19;;;;;;;8.77;5.72;;;8.60;99.90;;;;;;5059973;28;20037;-70
2024/01/06 01:36:45;;;;;;;11.52;6.18;;;8.60;99.90;;;;;;5042809;28;20047;-69
2024/01/06 01:39:11;;;;;;;9.18;5.75;;;8.60;99.90;;;;;;5059160;28;20467;-69
2024/01/06 01:41:36;;;;;;;11.80;5.53;;;8.70;99.90;;;;;;5059839;28;20029;-69
2024/01/06 01:44:02;;;;;;;14.02;6.28;;;8.60;99.90;;;;;;5058976;28;20029;-69
2024/01/06 01:46:30;;;;;;;11.13;6.05;;;8.60;99.90;;;;;;5058816;28;20132;-69
2024/01/06 01:48:57;;;;;;;13.75;7.95;;;8.60;99.90;;;;;;5058915;28;20309;-68
2024/01/06 01:51:26;;;;;;;20.38;9.02;;;8.70;99.90;;;;;;5059638;28;20048;-70
2024/01/06 01:53:52;;;;;;;16.10;9.43;;;8.70;99.90;;;;;;5059531;28;20137;-69
2024/01/06 01:56:19;;;;;;;18.95;9.10;;;8.70;99.90;;;;;;5059515;28;20044;-69
2024/01/06 01:58:46;;;;;;;17.88;9.15;;;8.70;99.90;;;;;;5059453;28;20096;-69
2024/01/06 02:01:12;;;;;;;16.60;9.40;;;8.60;99.90;;;;;;5058616;28;20312;-68
2024/01/06 02:03:41;;;;;;;19.60;10.15;;;8.60;99.90;;;;;;5058562;28;20013;-69
2024/01/06 02:06:07;;;;;;;16.60;8.93;;;8.60;99.90;;;;;;5059285;28;20146;-69
2024/01/06 02:08:32;;;;;;;16.50;8.70;;;8.60;99.90;;;;;;5058494;28;20028;-69
2024/01/06 02:10:58;;;;;;;16.42;8.57;;;8.50;99.90;;;;;;5057805;28;20087;-69
2024/01/06 02:13:24;;;;;;;15.77;8.27;;;8.50;99.90;;;;;;5058348;28;20044;-68
2024/01/06 02:15:50;;;;;;;17.58;7.88;;;8.40;99.90;;;;;;5059168;28;20033;-69
2024/01/06 02:18:16;;;;;;;13.32;7.93;;;8.40;99.90;;;;;;5058394;28;20067;-69
2024/01/06 02:20:47;;;;;;;16.98;8.73;;;8.40;99.90;;;;;;5058428;28;20041;-68
2024/01/06 02:23:13;;;;;;;14.80;8.77;;;8.40;99.90;;;;;;5059098;28;20028;-69
2024/01/06 02:25:39;;;;;;;15.93;9.18;;;8.40;99.90;;;;;;5058156;28;20087;-69
2024/01/06 02:28:05;;;;;;;15.75;9.13;;;8.40;99.90;;;;;;5058301;28;20071;-68
2024/01/06 02:30:31;;;;;;;18.15;9.43;;;8.30;99.90;;;;;;5058040;28;20310;-68
2024/01/06 02:32:56;;;;;;;19.73;9.43;;;8.30;99.90;;;;;;5058872;28;20040;-67
2024/01/06 02:35:22;;;;;;;16.40;8.05;;;8.30;99.90;;;;;;5058790;28;20040;-68
2024/01/06 02:37:48;;;;;;;15.70;8.02;;;8.30;99.90;;;;;;5058003;28;20033;-68
2024/01/06 02:40:14;;;;;;;17.50;8.57;;;8.30;99.90;;;;;;5041514;28;20123;-68
2024/01/06 02:42:40;;;;;;;15.93;8.02;;;8.20;99.90;;;;;;5041355;28;20044;-69
2024/01/06 02:45:08;;;;;;;15.60;7.72;;;8.20;99.90;;;;;;5058548;28;20029;-69
2024/01/06 02:47:34;;;;;;;17.20;7.93;;;8.20;99.90;;;;;;5057764;28;20021;-68
2024/01/06 02:50:00;;;;;;;10.63;6.72;;;8.20;99.90;;;;;;5041280;28;20112;-68
2024/01/06 02:52:25;;;;;;;11.85;7.65;;;8.10;99.90;;;;;;5057784;28;20387;-69
2024/01/06 02:54:51;;;;;;;11.77;7.30;;;8.10;99.90;;;;;;5058472;28;20029;-69
2024/01/06 02:57:18;;;;;;;14.73;7.57;;;8.00;99.90;;;;;;5058810;28;20021;-69
2024/01/06 02:59:43;;;;;;;10.85;6.72;;;8.00;99.90;;;;;;5058371;28;20032;-68
2024/01/06 03:02:10;;;;;;;12.75;7.05;;;7.90;99.90;;;;;;5057586;28;20025;-69
2024/01/06 03:04:36;;;;;;;12.38;6.75;;;7.90;99.90;;;;;;5058268;28;20094;-68
2024/01/06 03:07:02;;;;;;;11.73;7.10;;;7.90;99.90;;;;;;5057515;28;20029;-69
2024/01/06 03:09:28;;;;;;;11.93;7.22;;;7.90;99.90;;;;;;5040749;28;20029;-69
2024/01/06 03:11:54;;;;;;;12.98;6.70;;;7.90;99.90;;;;;;5058252;28;20032;-68
2024/01/06 03:14:20;;;;;;;12.43;6.88;;;7.90;99.90;;;;;;5058037;28;20477;-69
2024/01/06 03:16:45;;;;;;;10.70;6.32;;;7.80;99.90;;;;;;5057364;28;20064;-69
2024/01/06 03:19:11;;;;;;;10.60;6.72;;;7.80;99.90;;;;;;5040584;28;20403;-68
2024/01/06 03:21:37;;;;;;;11.32;6.78;;;7.80;99.90;;;;;;5039730;28;20040;-67
2024/01/06 03:24:04;;;;;;;12.88;7.07;;;7.80;99.90;;;;;;5057161;28;20033;-69
2024/01/06 03:26:30;;;;;;;12.13;6.70;;;7.80;99.90;;;;;;5057768;28;20044;-69
2024/01/06 03:28:56;;;;;;;14.65;6.63;;;7.80;99.90;;;;;;5040366;28;20468;-68
2024/01/06 03:31:22;;;;;;;13.85;6.53;;;7.80;99.90;;;;;;5057172;28;20037;-68
2024/01/06 03:33:48;;;;;;;12.68;7.15;;;7.80;99.90;;;;;;5056819;28;20039;-69
2024/01/06 03:36:17;;;;;;;13.50;7.13;;;7.80;99.90;;;;;;5057684;28;20401;-69
2024/01/06 03:38:42;;;;;;;9.35;6.15;;;7.80;99.90;;;;;;5057560;28;20040;-69
2024/01/06 03:41:08;;;;;;;11.63;6.25;;;7.80;99.90;;;;;;5056823;28;20427;-69
2024/01/06 03:43:34;;;;;;;14.57;7.00;;;7.80;99.90;;;;;;5056799;28;20132;-69
2024/01/06 03:46:00;;;;;;;11.05;6.68;;;7.90;99.90;;;;;;5057344;28;20299;-69
2024/01/06 03:48:26;;;;;;;11.40;6.25;;;7.80;99.90;;;;;;5057368;28;20032;-69
2024/01/06 03:50:51;;;;;;;10.38;5.90;;;7.70;99.90;;;;;;5057379;28;20028;-69
2024/01/06 03:53:17;;;;;;;12.57;5.85;;;7.80;99.90;;;;;;5056474;28;20032;-69
2024/01/06 03:55:43;;;;;;;11.38;6.00;;;7.80;99.90;;;;;;5057306;28;20103;-69
2024/01/06 03:58:09;;;;;;;11.35;6.53;;;7.80;99.90;;;;;;5057274;28;20032;-69
2024/01/06 04:00:34;;;;;;;10.52;5.97;;;7.90;99.90;;;;;;5056516;28;20036;-69
2024/01/06 04:03:00;;;;;;;9.77;6.03;;;7.90;99.90;;;;;;5056477;28;20033;-68
2024/01/06 04:05:26;;;;;;;12.05;6.22;;;7.80;99.90;;;;;;5057191;28;20041;-69
2024/01/06 04:07:52;;;;;;;14.35;6.10;;;7.90;99.90;;;;;;5056391;28;20041;-68
2024/01/06 04:10:17;;;;;;;11.63;6.75;;;7.90;99.90;;;;;;5056551;28;20029;-69
2024/01/06 04:12:43;;;;;;;10.77;6.50;;;7.90;99.90;;;;;;5056268;28;20033;-68
2024/01/06 04:15:09;;;;;;;11.27;6.55;;;7.90;99.90;;;;;;5039652;28;20040;-69
2024/01/06 04:17:35;;;;;;;14.63;7.00;;;7.90;99.90;;;;;;5057143;28;20096;-68
2024/01/06 04:20:00;;;;;;;13.25;7.15;;;7.90;99.90;;;;;;5056933;28;20036;-69
2024/01/06 04:22:26;;;;;;;10.45;6.32;;;7.90;99.90;;;;;;5056222;28;20373;-69
2024/01/06 04:24:52;;;;;;;10.90;6.28;;;7.90;99.90;;;;;;5023040;28;20452;-69
2024/01/06 04:27:18;;;;;;;10.77;6.10;;;7.80;99.90;;;;;;5056786;28;20025;-69
2024/01/06 04:29:43;;;;;;;14.98;6.03;;;7.90;99.90;;;;;;5055916;28;20045;-70
2024/01/06 04:32:09;;;;;;;9.32;5.57;;;7.90;99.90;;;;;;5056083;28;20095;-70
2024/01/06 04:34:35;;;;;;;12.90;6.05;;;7.90;99.90;;;;;;5055918;28;20124;-70
2024/01/06 04:37:01;;;;;;;9.15;5.15;;;7.80;99.90;;;;;;5056116;28;20037;-70
2024/01/06 04:39:27;;;;;;;13.93;6.32;;;7.90;99.90;;;;;;5056712;28;20321;-71
2024/01/06 04:41:52;;;;;;;11.63;5.88;;;7.80;99.90;;;;;;5039628;28;20044;-70
2024/01/06 04:44:22;;;;;;;9.23;5.40;;;7.80;99.90;;;;;;5056669;28;20416;-70
2024/01/06 04:46:47;;;;;;;10.23;5.53;;;7.80;99.90;;;;;;5056635;28;20446;-70
2024/01/06 04:49:13;;;;;;;8.07;5.35;;;7.80;99.90;;;;;;5055931;28;20025;-70
2024/01/06 04:51:39;;;;;;;10.23;5.25;;;7.80;99.90;;;;;;5056557;28;20025;-68
2024/01/06 04:54:05;;;;;;;7.90;5.32;;;7.80;99.90;;;;;;5055706;28;20075;-68
2024/01/06 04:56:30;;;;;;;11.30;5.57;;;7.80;99.90;;;;;;5055856;28;20033;-69
2024/01/06 04:58:57;;;;;;;11.73;4.97;;;7.90;99.90;;;;;;5056428;28;20396;-70
2024/01/06 05:01:24;;;;;;;8.82;5.38;;;7.80;99.90;;;;;;5056475;28;20037;-70
2024/01/06 05:03:49;;;;;;;9.35;5.35;;;7.70;99.90;;;;;;5056419;28;20085;-69
2024/01/06 05:06:15;;;;;;;9.15;4.38;;;7.70;99.90;;;;;;5056329;28;20040;-69
2024/01/06 05:08:44;;;;;;;7.85;4.00;;;7.70;99.90;;;;;;5039021;28;20102;-70
2024/01/06 05:11:11;;;;;;;8.05;4.57;;;7.80;99.90;;;;;;5056302;28;20060;-68
2024/01/06 05:13:37;;;;;;;9.10;4.90;;;7.70;99.90;;;;;;5055577;28;20044;-68
2024/01/06 05:16:03;;;;;;;7.45;4.50;;;7.60;99.90;;;;;;5056376;28;20025;-69
2024/01/06 05:18:29;;;;;;;8.20;4.35;;;7.70;99.90;;;;;;5055509;28;20068;-69
2024/01/06 05:20:56;;;;;;;6.68;4.03;;;7.70;99.90;;;;;;5055583;28;20056;-70
2024/01/06 05:23:22;;;;;;;6.97;4.10;;;7.70;99.90;;;;;;5055430;28;20033;-69
2024/01/06 05:25:47;;;;;;;4.60;3.63;;;7.70;99.90;;;;;;5055406;28;20040;-70
2024/01/06 05:28:13;;;;;;;5.32;3.95;;;7.70;99.90;;;;;;5056122;28;20078;-70
2024/01/06 05:30:39;;;;;;;5.40;3.67;;;7.60;99.90;;;;;;5055410;28;20041;-69
2024/01/06 05:33:05;;;;;;;6.60;3.92;;;7.50;99.90;;;;;;5038764;28;20039;-69
2024/01/06 05:35:31;;;;;;;9.13;4.18;;;7.50;99.90;;;;;;5038805;28;20118;-69
2024/01/06 05:37:56;;;;;;;8.85;3.63;;;7.50;99.90;;;;;;5056041;28;20025;-70
2024/01/06 05:40:22;;;;;;;8.90;4.03;;;7.40;99.90;;;;;;5055149;28;20358;-70
2024/01/06 05:42:48;;;;;;;6.53;4.05;;;7.30;99.90;;;;;;5055438;28;20090;-70
2024/01/06 05:45:14;;;;;;;6.18;4.40;;;7.40;99.90;;;;;;5057279;28;20099;-70
2024/01/06 05:47:40;;;;;;;5.70;4.10;;;7.40;99.90;;;;;;5026132;28;20029;-70
2024/01/06 05:50:09;;;;;;;5.45;4.10;;;7.30;99.90;;;;;;5058915;28;20053;-70
2024/01/06 05:52:35;;;;;;;7.43;4.35;;;7.30;99.90;;;;;;5059236;28;20128;-70
2024/01/06 05:55:00;;;;;;;8.30;5.28;;;7.20;99.90;;;;;;5058930;28;20053;-70
2024/01/06 05:57:26;;;;;;;7.13;5.20;;;7.20;99.90;;;;;;5058869;28;20096;-70
2024/01/06 05:59:52;;;;;;;11.65;5.53;;;7.30;99.90;;;;;;5042117;28;20064;-70
2024/01/06 06:02:18;;;;;;;9.43;5.63;;;7.40;99.90;;;;;;5059424;28;20340;-70
2024/01/06 06:04:43;;;;;;;10.30;5.80;;;7.30;99.90;;;;;;5059591;28;20025;-69
2024/01/06 06:07:09;;;;;;;8.43;5.65;;;7.30;99.90;;;;;;5059231;28;20037;-70
2024/01/06 06:09:35;;;;;;;8.20;5.90;;;7.30;99.90;;;;;;5059289;28;20039;-71
2024/01/06 06:12:01;;;;;;;8.02;5.65;;;7.30;99.90;;;;;;5058469;28;20049;-70
2024/01/06 06:14:28;;;;;;;10.13;6.03;;;7.30;99.90;;;;;;5059117;28;20025;-70
2024/01/06 06:16:54;;;;;;;11.45;6.30;;;7.20;99.90;;;;;;5058423;28;20041;-69
2024/01/06 06:19:20;;;;;;;8.63;6.28;;;7.20;99.90;;;;;;5059046;28;20037;-69
2024/01/06 06:21:46;;;;;;;12.15;7.40;;;7.20;99.90;;;;;;5041997;28;20104;-72
2024/01/06 06:24:11;;;;;;;8.63;6.28;;;7.20;99.90;;;;;;5058949;28;20037;-70
2024/01/06 06:26:37;;;;;;;10.65;6.38;;;7.20;99.90;;;;;;5058212;28;20037;-70
2024/01/06 06:29:03;;;;;;;11.90;6.57;;;7.10;99.90;;;;;;5058047;28;20037;-70
2024/01/06 06:31:29;;;;;;;9.38;6.13;;;7.10;99.90;;;;;;5058205;28;20032;-70
2024/01/06 06:33:55;;;;;;;10.90;7.22;;;7.10;99.90;;;;;;5058087;28;20032;-70
2024/01/06 06:36:20;;;;;;;15.90;7.47;;;7.10;99.90;;;;;;5058159;28;20067;-70
2024/01/06 06:38:46;;;;;;;10.90;7.07;;;7.20;99.90;;;;;;5058773;28;20037;-69
2024/01/06 06:41:12;;;;;;;9.00;6.45;;;7.20;99.90;;;;;;5041412;28;20033;-69
2024/01/06 06:43:38;;;;;;;10.80;6.85;;;7.10;99.90;;;;;;5057857;28;20112;-70
2024/01/06 06:46:04;;;;;;;10.75;6.10;;;7.10;99.90;;;;;;5057649;28;20043;-71
2024/01/06 06:48:29;;;;;;;10.15;6.30;;;7.10;99.90;;;;;;5058549;28;20412;-70
2024/01/06 06:50:55;;;;;;;7.93;5.57;;;7.00;99.90;;;;;;5058538;28;20293;-69
2024/01/06 06:53:21;;;;;;;8.13;5.78;;;7.00;99.90;;;;;;5041063;28;20089;-70
2024/01/06 06:55:47;;;;;;;11.48;5.35;;;7.10;99.90;;;;;;5057460;28;20028;-68
2024/01/06 06:58:13;;;;;;;7.97;5.50;;;7.10;99.90;;;;;;5057644;28;20079;-70
2024/01/06 07:00:39;;;;;;;8.88;5.68;;;7.10;99.90;;;;;;5058561;28;20060;-70
2024/01/06 07:03:05;;;;;;;9.43;5.25;;;6.90;99.90;;;;;;5058173;28;20085;-70
2024/01/06 07:05:30;;;;;;;7.47;5.03;;;6.90;99.90;;;;;;5057352;28;20103;-70
2024/01/06 07:07:56;;;;;;;8.05;5.63;;;7.00;99.90;;;;;;5058216;28;20033;-69
2024/01/06 07:10:22;;;;;;;9.43;5.57;;;7.00;99.90;;;;;;5057337;28;20093;-69
2024/01/06 07:12:48;;;;;;;10.02;5.43;;;7.00;99.90;;;;;;5058037;28;20037;-69
2024/01/06 07:15:14;;;;;;;7.20;5.63;;;7.00;99.90;;;;;;5057170;28;20039;-70
2024/01/06 07:17:40;;;;;;;8.77;5.32;;;7.00;99.90;;;;;;5040658;28;20033;-70
2024/01/06 07:20:07;;;;;;;10.57;5.30;;;7.10;99.90;;;;;;5057076;28;20040;-70
2024/01/06 07:22:37;;;;;;;7.53;5.18;;;7.00;99.90;;;;;;5057840;28;20407;-69
2024/01/06 07:25:03;;;;;;;8.77;4.72;;;7.10;99.90;;;;;;5057668;28;20059;-70
2024/01/06 07:27:28;;;;;;;8.00;5.00;;;7.00;99.90;;;;;;5057008;28;20029;-69
2024/01/06 07:29:55;;;;;;;9.32;5.35;;;7.00;99.90;;;;;;5056707;28;20298;-70
2024/01/06 07:32:22;;;;;;;8.63;5.13;;;7.00;99.90;;;;;;5056892;28;20091;-69
2024/01/06 07:34:48;;;;;;;14.25;5.90;;;7.10;99.90;;;;;;5040597;28;20285;-70
2024/01/06 07:37:14;;;;;;;7.78;5.85;;;7.10;99.90;;;;;;5057533;28;20047;-68
2024/01/06 07:39:40;;;;;;;8.80;6.40;;;7.10;99.90;;;;;;5056788;28;20076;-70
2024/01/06 07:42:05;;;;;;;8.90;6.07;;;7.10;99.90;;;;;;5056583;28;20025;-70
2024/01/06 07:44:31;;;;;;;9.15;6.43;;;7.10;99.90;;;;;;5040121;28;20112;-70
2024/01/06 07:46:57;;;;;;;9.70;6.47;;;7.10;99.90;;;;;;5056515;28;20051;-70
2024/01/06 07:49:23;;;;;;;10.23;6.35;;;7.00;99.90;;;;;;5056464;28;20175;-70
2024/01/06 07:51:48;;;;;;;8.48;5.95;;;7.00;99.90;;;;;;5057336;28;20029;-71
2024/01/06 07:54:14;;;;;;;9.82;6.15;;;7.00;99.90;;;;;;5057288;28;20033;-70
2024/01/06 07:56:40;;;;;;;9.27;6.05;;;7.00;99.90;;;;;;5057287;28;20134;-71
2024/01/06 07:59:06;;;;;;;10.52;5.88;;;7.00;99.90;;;;;;5056470;28;20048;-70
2024/01/06 08:01:31;;;;;;;8.57;5.57;;;7.10;99.90;;;;;;5056404;28;20278;-69
2024/01/06 08:03:58;;;;;;;8.90;5.43;;;7.00;99.90;;;;;;5056246;28;20033;-70
2024/01/06 08:06:25;;;;;;;10.48;5.60;;;7.00;99.90;;;;;;5056402;28;20039;-70
2024/01/06 08:08:51;;;;;;;9.02;5.75;;;7.00;99.90;;;;;;5056358;28;20040;-70
2024/01/06 08:11:16;;;;;;;7.30;4.90;;;7.00;99.90;;;;;;5057013;28;20025;-70
2024/01/06 08:13:42;;;;;;;9.85;6.10;;;7.00;99.90;;;;;;5039647;28;20123;-70
2024/01/06 08:16:08;;;;;;;7.93;5.60;;;7.00;99.90;;;;;;5056806;28;20093;-71
2024/01/06 08:18:34;;;;;;;9.57;5.70;;;7.00;99.90;;;;;;5039357;28;20035;-70
2024/01/06 08:21:00;;;;;;;7.78;5.18;;;7.00;99.90;;;;;;5039246;28;20379;-71
2024/01/06 08:23:25;;;;;;;11.60;5.30;;;7.00;99.90;;;;;;5039299;28;20037;-70
2024/01/06 08:25:51;;;;;;;7.07;5.03;;;6.90;99.90;;;;;;5056226;28;20029;-70
2024/01/06 08:28:18;;;;;;;7.97;4.72;;;6.90;99.90;;;;;;5056443;28;20036;-70
2024/01/06 08:30:44;;;;;;;7.90;5.38;;;6.80;99.90;;;;;;5055632;28;20371;-70
2024/01/06 08:33:10;;;;;;;6.45;4.55;;;6.80;99.90;;;;;;5056572;28;20033;-70
2024/01/06 08:35:40;;;;;;;6.15;4.15;;;7.00;99.90;;;;;;5056488;28;20086;-70
2024/01/06 08:38:09;;;;;;;8.45;4.50;;;7.00;99.90;;;;;;5055949;28;20308;-70
2024/01/06 08:40:35;;;;;;;7.03;4.32;;;7.00;99.90;;;;;;5056273;28;20024;-70
2024/01/06 08:43:02;;;;;;;5.50;4.28;;;7.00;99.90;;;;;;5056525;28;20296;-70
2024/01/06 08:45:28;;;;;;;5.32;3.92;;;6.90;99.90;;;;;;5056601;28;20025;-71
2024/01/06 08:47:54;;;;;;;7.15;4.03;;;7.00;99.90;;;;;;5039081;28;20108;-70
2024/01/06 08:50:20;;;;;;;8.48;3.45;;;6.90;99.90;;;;;;5056538;28;20108;-72
2024/01/06 08:52:45;;;;;;;6.53;3.88;;;6.90;99.90;;;;;;5055679;28;20032;-70
2024/01/06 08:55:11;;;;;;;6.57;4.07;;;7.00;99.90;;;;;;5056373;28;20425;-71
2024/01/06 08:57:37;;;;;;;7.43;3.80;;;7.00;99.90;;;;;;5056556;28;20078;-70
2024/01/06 09:00:05;;;;;;;5.35;3.40;;;7.00;99.90;;;;;;5055827;28;20029;-70
2024/01/06 09:02:31;;;;;;;6.80;3.90;;;7.10;99.90;;;;;;5056820;28;20120;-70
2024/01/06 09:04:56;;;;;;;6.15;3.78;;;7.00;99.90;;;;;;5056496;28;20120;-70
2024/01/06 09:07:22;;;;;;;5.75;3.40;;;7.10;99.90;;;;;;5055618;28;20446;-70
2024/01/06 09:09:48;;;;;;;11.02;3.63;;;7.10;99.90;;;;;;5056671;28;20075;-70
2024/01/06 09:12:14;;;;;;;6.22;3.50;;;7.00;99.90;;;;;;5039075;28;20056;-69
2024/01/06 09:14:40;;;;;;;4.20;3.60;;;7.00;99.90;;;;;;5056351;28;20151;-69
2024/01/06 09:17:06;;;;;;;5.38;3.35;;;7.00;99.90;;;;;;5022795;28;20021;-70
2024/01/06 09:19:32;;;;;;;7.10;3.15;;;7.00;99.90;;;;;;5056533;28;20075;-69
2024/01/06 09:21:58;;;;;;;4.97;3.05;;;7.00;99.90;;;;;;5059595;28;20471;-69
2024/01/06 09:24:23;;;;;;;4.25;3.10;;;6.90;99.90;;;;;;5059440;28;20033;-70
2024/01/06 09:26:50;;;;;;;4.65;3.38;;;6.90;99.90;;;;;;5059484;28;20075;-70
2024/01/06 09:29:16;;;;;;;4.30;3.03;;;6.80;99.90;;;;;;5059109;28;20132;-70
2024/01/06 09:31:43;;;;;;;4.25;3.20;;;6.90;99.90;;;;;;5059360;28;20044;-70
2024/01/06 09:34:12;;;;;;;4.53;3.60;;;6.90;99.90;;;;;;5059220;28;20067;-69
2024/01/06 09:36:38;;;;;;;4.78;3.15;;;7.00;99.90;;;;;;5059106;28;20044;-71
2024/01/06 09:39:04;;;;;;;5.68;3.40;;;7.00;99.90;;;;;;5059736;28;20300;-70
2024/01/06 09:41:31;;;;;;;5.93;3.40;;;7.00;99.90;;;;;;5059841;28;20040;-69
2024/01/06 09:43:57;;;;;;;4.60;3.55;;;7.00;99.90;;;;;;5059017;28;20128;-68
2024/01/06 09:46:26;;;;;;;4.80;3.30;;;7.00;99.90;;;;;;5059793;28;20125;-70
2024/01/06 09:48:54;;;;;;;4.35;3.10;;;7.00;99.90;;;;;;5058962;28;20116;-71
2024/01/06 09:51:20;;;;;;;5.80;3.10;;;7.10;99.90;;;;;;5059674;28;20063;-70
2024/01/06 09:54:07;;;;;;;4.28;3.17;;;7.10;99.90;;;;;;5042332;28;20090;-70
2024/01/06 09:56:34;;;;;;;5.38;3.08;;;7.20;99.90;;;;;;5059156;28;20404;-72
2024/01/06 09:59:00;;;;;;;4.15;3.05;;;7.20;99.90;;;;;;5058764;28;20025;-70
2024/01/06 10:01:26;;;;;;;4.57;3.45;;;7.10;99.90;;;;;;5059487;28;20052;-71
2024/01/06 10:03:52;;;;;;;4.45;3.55;;;7.10;99.90;;;;;;5042101;28;20117;-71
2024/01/06 10:06:18;;;;;;;7.00;3.67;;;7.10;99.90;;;;;;5059303;28;20033;-69
2024/01/06 10:08:48;;;;;;;6.47;3.90;;;7.10;99.90;;;;;;5058526;28;20036;-70
2024/01/06 10:11:14;;;;;;;3.80;3.28;;;7.10;99.90;;;;;;5059282;28;20284;-72
2024/01/06 10:13:40;;;;;;;5.55;4.10;;;7.10;99.90;;;;;;5058596;28;20111;-69
2024/01/06 10:16:06;;;;;;;8.00;3.85;;;7.00;99.90;;;;;;5041926;28;20107;-70
2024/01/06 10:18:32;;;;;;;6.75;4.55;;;6.90;99.90;;;;;;5058348;28;20047;-69
2024/01/06 10:20:59;;;;;;;5.90;4.38;;;6.90;99.90;;;;;;5059064;28;20068;-67
2024/01/06 10:23:27;;;;;;;6.75;4.13;;;6.80;99.90;;;;;;5058417;28;20057;-68
2024/01/06 10:25:54;;;;;;;5.75;4.47;;;6.90;99.90;;;;;;5058994;28;20036;-67
2024/01/06 10:28:22;;;;;;;6.20;4.47;;;6.90;99.90;;;;;;5058115;28;20029;-67
2024/01/06 10:30:51;;;;;;;5.63;4.53;;;6.90;99.90;;;;;;5058175;28;20055;-68
2024/01/06 10:33:17;;;;;;;5.55;4.45;;;6.90;99.90;;;;;;5057954;28;20029;-66
2024/01/06 10:35:44;;;;;;;7.38;4.50;;;7.00;99.90;;;;;;5041562;28;20041;-66
2024/01/06 10:38:11;;;;;;;4.80;4.30;;;6.90;99.90;;;;;;5041832;28;20274;-67
2024/01/06 10:40:36;;;;;;;6.35;4.20;;;6.90;99.90;;;;;;5058759;28;20132;-64
2024/01/06 10:43:04;;;;;;;5.03;4.07;;;6.90;99.90;;;;;;5057889;28;20128;-64
2024/01/06 10:45:29;;;;;;;5.40;4.28;;;6.90;99.90;;;;;;5057781;28;20108;-70
2024/01/06 10:47:57;;;;;;;6.22;4.00;;;6.90;99.90;;;;;;5057745;28;20431;-66
2024/01/06 10:50:23;;;;;;;4.85;4.00;;;6.90;99.90;;;;;;5058534;28;20029;-67
2024/01/06 10:52:51;;;;;;;5.30;3.80;;;6.90;99.90;;;;;;5057785;28;20056;-67
2024/01/06 10:55:20;;;;;;;4.80;3.90;;;6.90;99.90;;;;;;5058095;28;20037;-69
2024/01/06 10:57:48;;;;;;;5.45;4.00;;;6.90;99.90;;;;;;5057751;28;20033;-74
2024/01/06 11:00:14;;;;;;;6.40;4.15;;;7.00;99.90;;;;;;5041067;28;20025;-71
2024/01/06 11:02:41;;;;;;;5.72;3.90;;;6.90;99.90;;;;;;5057475;28;20040;-72
2024/01/06 11:05:10;;;;;;;3.90;3.38;;;6.90;99.90;;;;;;5058172;28;20025;-71
2024/01/06 11:07:37;;;;;;;5.38;3.55;;;6.90;99.90;;;;;;5058229;28;20021;-71
2024/01/06 11:10:05;;;;;;;5.55;3.65;;;7.00;99.90;;;;;;5057459;28;20388;-65
2024/01/06 11:12:32;;;;;;;5.07;3.67;;;7.00;99.90;;;;;;5058110;28;20036;-69
2024/01/06 11:14:58;;;;;;;5.32;3.50;;;7.10;99.90;;;;;;5057969;28;20036;-69
2024/01/06 11:17:58;;;;;;;5.47;3.55;;;7.10;99.90;;;;;;5057979;28;20304;-69
2024/01/06 11:20:26;;;;;;;5.32;4.00;;;7.00;99.90;;;;;;5057253;28;20392;-72
2024/01/06 11:22:53;;;;;;;6.38;4.28;;;7.00;99.90;;;;;;5057949;28;20024;-72
2024/01/06 11:25:21;;;;;;;5.25;4.28;;;7.10;99.90;;;;;;5057860;28;20037;-72
2024/01/06 11:27:48;;;;;;;6.13;4.43;;;7.10;99.90;;;;;;5058181;28;20112;-66
2024/01/06 11:30:26;;;;;;;5.35;4.55;;;7.10;99.90;;;;;;5057607;28;20332;-71
2024/01/06 11:32:53;;;;;;;8.13;5.03;;;7.10;99.90;;;;;;5040439;28;20052;-70
2024/01/06 11:35:20;;;;;;;11.50;6.50;;;7.00;99.90;;;;;;5057019;28;20032;-61
2024/01/06 11:37:45;;;;;;;10.43;6.80;;;7.00;99.90;;;;;;5040254;28;20032;-69
2024/01/06 11:40:23;;;;;;;10.93;6.20;;;7.00;99.90;;;;;;5057560;28;20056;-72
2024/01/06 11:43:12;;;;;;;7.97;5.35;;;7.10;99.90;;;;;;5056782;28;20024;-70
2024/01/06 11:45:41;;;;;;;7.45;4.72;;;7.00;99.90;;;;;;5053811;28;20056;-71
2024/01/06 11:48:09;;;;;;;7.15;4.63;;;6.90;99.90;;;;;;5040128;28;20421;-71
2024/01/06 11:50:38;;;;;;;6.68;4.18;;;6.90;99.90;;;;;;5057444;28;20156;-71
2024/01/06 11:53:05;;;;;;;5.18;4.38;;;7.00;99.90;;;;;;5056610;28;20029;-70
2024/01/06 11:55:32;;;;;;;8.02;4.85;;;6.90;99.90;;;;;;5056756;28;20037;-69
2024/01/06 11:58:01;;;;;;;5.45;4.75;;;6.90;99.90;;;;;;5056669;28;20029;-69
2024/01/06 12:00:33;;;;;;;6.15;4.57;;;6.90;99.90;;;;;;5056379;28;20127;-70
2024/01/06 12:03:00;;;;;;;8.30;4.55;;;7.00;99.90;;;;;;5056466;28;20025;-72
2024/01/06 12:05:27;;;;;;;5.43;4.47;;;7.00;99.90;;;;;;5057014;28;20028;-70
2024/01/06 12:07:58;;;;;;;4.53;3.75;;;7.10;99.90;;;;;;5056883;28;20134;-70
2024/01/06 12:10:27;;;;;;;7.93;4.53;;;7.10;99.90;;;;;;5056768;28;20033;-70
2024/01/06 12:13:00;;;;;;;6.95;4.18;;;7.20;99.90;;;;;;5056734;28;20052;-67
2024/01/06 12:15:26;;;;;;;6.53;3.70;;;7.30;99.90;;;;;;5056249;28;20125;-71
2024/01/06 12:17:52;;;;;;;4.07;3.55;;;7.20;99.90;;;;;;5056146;28;20040;-69
2024/01/06 12:20:23;;;;;;;4.80;3.65;;;7.20;99.90;;;;;;5056993;28;20033;-70
2024/01/06 12:22:51;;;;;;;5.97;3.85;;;7.30;99.90;;;;;;5039589;28;20392;-70
2024/01/06 12:25:17;;;;;;;3.92;3.50;;;7.30;99.90;;;;;;5056796;28;20033;-70
2024/01/06 12:27:46;;;;;;;5.35;3.65;;;7.30;99.90;;;;;;5039483;28;20033;-70
2024/01/06 12:30:18;;;;;;;4.68;3.30;;;7.30;99.90;;;;;;5055789;28;20049;-70
2024/01/06 12:32:45;;;;;;;4.85;3.42;;;7.20;99.90;;;;;;5055931;28;20021;-71
2024/01/06 12:35:12;;;;;;;5.57;3.13;;;7.10;99.90;;;;;;5039293;28;20036;-69
2024/01/06 12:37:38;;;;;;;4.93;2.70;;;7.10;99.90;;;;;;5055793;28;20056;-69
2024/01/06 12:40:05;;;;;;;5.07;3.35;;;7.20;99.90;;;;;;5056337;28;20321;-69
2024/01/06 12:42:31;;;;;;;3.92;2.67;;;7.30;99.90;;;;;;5055761;28;20039;-69
2024/01/06 12:44:57;;;;;;;3.30;2.90;;;7.20;99.90;;;;;;5039522;28;20111;-70
2024/01/06 12:47:24;;;;;;;5.20;3.00;;;7.10;99.90;;;;;;5056181;28;20408;-69
2024/01/06 12:49:49;;;;;;;4.95;2.72;;;7.10;99.90;;;;;;5056467;28;20033;-70